UAL1946 KLAX-KORD
Flight info
| Callsign | UAL1946 |
|---|---|
| Flight time | N/A |
| Altitude | 39000 |
| Route | DOTSS2 CLEEE PKE J96 CIM SLN IRK BENKY6 |
| Aircraft | B772/H-SDE2E3FGHIJ5LORVWXY/LB1D1 |
Departure
| Time | 2026-04-22 13:39 |
|---|---|
| Airport | Los Angeles International Airport (KLAX) |
Arrival
| Time | N/A |
|---|---|
| Airport | Chicago O'Hare International Airport (KORD) |
| Time | Latitude | Longitude | Altitude | Speed | Heading |
|---|---|---|---|---|---|
| 2026-04-22 13:17 | 33.94108 | -118.39898 | 100 ft | 0 kts | 306° |
| 2026-04-22 13:29 | 33.94099 | -118.39885 | 97 ft | 3 kts | 306° |
| 2026-04-22 13:30 | 33.94088 | -118.39865 | 99 ft | 3 kts | 279° |
| 2026-04-22 13:30 | 33.94090 | -118.39842 | 97 ft | 3 kts | 249° |
| 2026-04-22 13:30 | 33.94100 | -118.39823 | 97 ft | 1 kts | 195° |
| 2026-04-22 13:30 | 33.94114 | -118.39827 | 97 ft | 1 kts | 162° |
| 2026-04-22 13:31 | 33.94103 | -118.39826 | 97 ft | 3 kts | 173° |
| 2026-04-22 13:31 | 33.94082 | -118.39824 | 101 ft | 3 kts | 177° |
| 2026-04-22 13:31 | 33.94062 | -118.39827 | 97 ft | 3 kts | 186° |
| 2026-04-22 13:31 | 33.94045 | -118.39826 | 97 ft | 3 kts | 174° |
| 2026-04-22 13:32 | 33.94044 | -118.39826 | 97 ft | 0 kts | 174° |
| 2026-04-22 13:33 | 33.93983 | -118.39818 | 100 ft | 11 kts | 171° |
| 2026-04-22 13:34 | 33.93915 | -118.39776 | 101 ft | 11 kts | 133° |
| 2026-04-22 13:34 | 33.93909 | -118.39686 | 102 ft | 11 kts | 82° |
| 2026-04-22 13:34 | 33.93921 | -118.39595 | 99 ft | 11 kts | 80° |
| 2026-04-22 13:34 | 33.93932 | -118.39501 | 99 ft | 11 kts | 83° |
| 2026-04-22 13:35 | 33.93939 | -118.39408 | 98 ft | 11 kts | 85° |
| 2026-04-22 13:35 | 33.93946 | -118.39315 | 98 ft | 11 kts | 83° |
| 2026-04-22 13:35 | 33.93957 | -118.39222 | 99 ft | 11 kts | 81° |
| 2026-04-22 13:35 | 33.93969 | -118.39129 | 100 ft | 11 kts | 83° |
| 2026-04-22 13:36 | 33.93976 | -118.39036 | 98 ft | 11 kts | 84° |
| 2026-04-22 13:36 | 33.93985 | -118.38943 | 98 ft | 11 kts | 83° |
| 2026-04-22 13:36 | 33.93997 | -118.38824 | 98 ft | 20 kts | 83° |
| 2026-04-22 13:36 | 33.94015 | -118.38659 | 102 ft | 20 kts | 82° |
| 2026-04-22 13:37 | 33.94032 | -118.38493 | 100 ft | 20 kts | 83° |
| 2026-04-22 13:37 | 33.94040 | -118.38412 | 103 ft | 6 kts | 82° |
| 2026-04-22 13:37 | 33.94044 | -118.38362 | 102 ft | 6 kts | 94° |
| 2026-04-22 13:37 | 33.93992 | -118.38313 | 102 ft | 5 kts | 173° |
| 2026-04-22 13:38 | 33.93961 | -118.38327 | 103 ft | 5 kts | 228° |
| 2026-04-22 13:38 | 33.93943 | -118.38395 | 103 ft | 0 kts | 270° |
| 2026-04-22 13:39 | 33.93927 | -118.38586 | 105 ft | 68 kts | 262° |
| 2026-04-22 13:39 | 33.93828 | -118.39570 | 103 ft | 165 kts | 262° |
| 2026-04-22 13:39 | 33.93662 | -118.41074 | 850 ft | 188 kts | 263° |
| 2026-04-22 13:40 | 33.93481 | -118.42634 | 2094 ft | 185 kts | 264° |
| 2026-04-22 13:40 | 33.93326 | -118.44187 | 2667 ft | 198 kts | 264° |
| 2026-04-22 13:40 | 33.93092 | -118.45923 | 2874 ft | 223 kts | 250° |
| 2026-04-22 13:40 | 33.92171 | -118.47506 | 3243 ft | 241 kts | 229° |
| 2026-04-22 13:41 | 33.91057 | -118.49102 | 3838 ft | 254 kts | 231° |
| 2026-04-22 13:41 | 33.89908 | -118.50749 | 4721 ft | 258 kts | 231° |
| 2026-04-22 13:41 | 33.88750 | -118.52390 | 5644 ft | 259 kts | 231° |
| 2026-04-22 13:41 | 33.87580 | -118.54052 | 6577 ft | 260 kts | 231° |
| 2026-04-22 13:42 | 33.86242 | -118.55515 | 7277 ft | 267 kts | 209° |
| 2026-04-22 13:42 | 33.84404 | -118.56002 | 8023 ft | 278 kts | 179° |
| 2026-04-22 13:42 | 33.82494 | -118.55575 | 8756 ft | 283 kts | 169° |
| 2026-04-22 13:42 | 33.80548 | -118.55032 | 9462 ft | 290 kts | 170° |
| 2026-04-22 13:43 | 33.78576 | -118.54489 | 10302 ft | 291 kts | 171° |
| 2026-04-22 13:43 | 33.76587 | -118.53945 | 11064 ft | 298 kts | 172° |
| 2026-04-22 13:43 | 33.74483 | -118.53380 | 11323 ft | 323 kts | 173° |
| 2026-04-22 13:43 | 33.72214 | -118.52740 | 11499 ft | 346 kts | 167° |
| 2026-04-22 13:44 | 33.70017 | -118.51291 | 11650 ft | 383 kts | 142° |
| 2026-04-22 13:44 | 33.68422 | -118.48609 | 12132 ft | 408 kts | 115° |
| 2026-04-22 13:44 | 33.67532 | -118.45324 | 12868 ft | 419 kts | 108° |
| 2026-04-22 13:44 | 33.66689 | -118.41935 | 13678 ft | 426 kts | 110° |
| 2026-04-22 13:45 | 33.65736 | -118.38552 | 14529 ft | 430 kts | 111° |
| 2026-04-22 13:45 | 33.64737 | -118.35144 | 15335 ft | 431 kts | 110° |
| 2026-04-22 13:45 | 33.64189 | -118.31583 | 15731 ft | 440 kts | 92° |
| 2026-04-22 13:45 | 33.64235 | -118.27910 | 16225 ft | 451 kts | 89° |
| 2026-04-22 13:46 | 33.64339 | -118.24076 | 16994 ft | 456 kts | 89° |
| 2026-04-22 13:46 | 33.64413 | -118.20311 | 17798 ft | 458 kts | 90° |
| 2026-04-22 13:46 | 33.64455 | -118.16469 | 18498 ft | 463 kts | 90° |
| 2026-04-22 13:46 | 33.64472 | -118.12584 | 19107 ft | 469 kts | 91° |
| 2026-04-22 13:47 | 33.64473 | -118.08643 | 19721 ft | 475 kts | 91° |
| 2026-04-22 13:47 | 33.64466 | -118.04659 | 20343 ft | 479 kts | 91° |
| 2026-04-22 13:47 | 33.64458 | -118.00635 | 20942 ft | 484 kts | 91° |
| 2026-04-22 13:47 | 33.64449 | -117.96579 | 21514 ft | 489 kts | 91° |
| 2026-04-22 13:48 | 33.64440 | -117.92476 | 22069 ft | 494 kts | 91° |
| 2026-04-22 13:48 | 33.64432 | -117.88342 | 22628 ft | 498 kts | 91° |
| 2026-04-22 13:48 | 33.64424 | -117.84170 | 23197 ft | 502 kts | 91° |
| 2026-04-22 13:48 | 33.64426 | -117.79961 | 23729 ft | 507 kts | 89° |
| 2026-04-22 13:49 | 33.64803 | -117.75743 | 24156 ft | 511 kts | 79° |
| 2026-04-22 13:49 | 33.65627 | -117.71576 | 24605 ft | 516 kts | 75° |
| 2026-04-22 13:49 | 33.66558 | -117.67404 | 25102 ft | 520 kts | 74° |
| 2026-04-22 13:49 | 33.67486 | -117.63181 | 25597 ft | 523 kts | 75° |
| 2026-04-22 13:50 | 33.68079 | -117.60365 | 25883 ft | 526 kts | 75° |
| 2026-04-22 13:50 | 33.69225 | -117.54639 | 26535 ft | 530 kts | 76° |
| 2026-04-22 13:50 | 33.70049 | -117.50320 | 26946 ft | 532 kts | 76° |
| 2026-04-22 13:50 | 33.70870 | -117.45950 | 27272 ft | 538 kts | 76° |
| 2026-04-22 13:51 | 33.71695 | -117.41571 | 27664 ft | 540 kts | 76° |
| 2026-04-22 13:51 | 33.72529 | -117.37157 | 28056 ft | 542 kts | 76° |
| 2026-04-22 13:51 | 33.73367 | -117.32731 | 28404 ft | 545 kts | 76° |
| 2026-04-22 13:51 | 33.74213 | -117.28268 | 28728 ft | 548 kts | 76° |
| 2026-04-22 13:52 | 33.75030 | -117.23841 | 29023 ft | 551 kts | 78° |
| 2026-04-22 13:52 | 33.75426 | -117.19256 | 29269 ft | 554 kts | 90° |
| 2026-04-22 13:52 | 33.75246 | -117.14629 | 29551 ft | 556 kts | 95° |
| 2026-04-22 13:52 | 33.74957 | -117.09930 | 29818 ft | 558 kts | 94° |
| 2026-04-22 13:53 | 33.74753 | -117.05321 | 30031 ft | 561 kts | 92° |
| 2026-04-22 13:53 | 33.74640 | -117.00617 | 30224 ft | 564 kts | 91° |
| 2026-04-22 13:53 | 33.74561 | -116.95893 | 30453 ft | 566 kts | 91° |
| 2026-04-22 13:53 | 33.74473 | -116.91170 | 30762 ft | 566 kts | 92° |
| 2026-04-22 13:54 | 33.74371 | -116.86452 | 31085 ft | 565 kts | 92° |
| 2026-04-22 13:54 | 33.74260 | -116.81735 | 31398 ft | 564 kts | 92° |
| 2026-04-22 13:54 | 33.74146 | -116.77016 | 31669 ft | 565 kts | 92° |
| 2026-04-22 13:54 | 33.74030 | -116.72284 | 31949 ft | 565 kts | 92° |
| 2026-04-22 13:55 | 33.73914 | -116.67561 | 32214 ft | 566 kts | 92° |
| 2026-04-22 13:55 | 33.73798 | -116.62837 | 32504 ft | 566 kts | 92° |
| 2026-04-22 13:55 | 33.73680 | -116.58119 | 32833 ft | 564 kts | 92° |
| 2026-04-22 13:55 | 33.73559 | -116.53407 | 32966 ft | 567 kts | 92° |
| 2026-04-22 13:56 | 33.73436 | -116.48655 | 33170 ft | 568 kts | 91° |
| 2026-04-22 13:56 | 33.73315 | -116.43921 | 33465 ft | 567 kts | 91° |
| 2026-04-22 13:56 | 33.73192 | -116.39192 | 33722 ft | 567 kts | 91° |
| 2026-04-22 13:56 | 33.73065 | -116.34459 | 33969 ft | 567 kts | 91° |
| 2026-04-22 13:57 | 33.72934 | -116.29710 | 34219 ft | 567 kts | 91° |
| 2026-04-22 13:57 | 33.72804 | -116.24992 | 34485 ft | 567 kts | 91° |
| 2026-04-22 13:57 | 33.72671 | -116.20244 | 34691 ft | 568 kts | 92° |
| 2026-04-22 13:57 | 33.72537 | -116.15495 | 34877 ft | 569 kts | 92° |
| 2026-04-22 13:58 | 33.72402 | -116.10743 | 35107 ft | 570 kts | 91° |
| 2026-04-22 13:58 | 33.72538 | -116.05999 | 35342 ft | 568 kts | 79° |
| 2026-04-22 13:58 | 33.73115 | -116.02959 | 35483 ft | 561 kts | 69° |
| 2026-04-22 13:58 | 33.74374 | -115.98533 | 35675 ft | 560 kts | 66° |
| 2026-04-22 13:59 | 33.75724 | -115.94125 | 35840 ft | 561 kts | 65° |
| 2026-04-22 13:59 | 33.77071 | -115.89732 | 36054 ft | 562 kts | 66° |
| 2026-04-22 13:59 | 33.78392 | -115.85305 | 36259 ft | 563 kts | 67° |
| 2026-04-22 13:59 | 33.80084 | -115.79406 | 36490 ft | 564 kts | 68° |
| 2026-04-22 14:00 | 33.81330 | -115.74926 | 36685 ft | 564 kts | 68° |
| 2026-04-22 14:00 | 33.82158 | -115.71906 | 36854 ft | 563 kts | 68° |
| 2026-04-22 14:00 | 33.83374 | -115.67445 | 37178 ft | 560 kts | 68° |
| 2026-04-22 14:00 | 33.84584 | -115.63001 | 37508 ft | 556 kts | 68° |
| 2026-04-22 14:01 | 33.85787 | -115.58591 | 37786 ft | 554 kts | 68° |
| 2026-04-22 14:01 | 33.86997 | -115.54171 | 37896 ft | 556 kts | 68° |
| 2026-04-22 14:01 | 33.88205 | -115.49757 | 38045 ft | 557 kts | 68° |
| 2026-04-22 14:01 | 33.89415 | -115.45330 | 38203 ft | 556 kts | 68° |
| 2026-04-22 14:02 | 33.90612 | -115.40949 | 38310 ft | 557 kts | 68° |
| 2026-04-22 14:02 | 33.91824 | -115.36514 | 38469 ft | 558 kts | 68° |
| 2026-04-22 14:02 | 33.93031 | -115.32082 | 38622 ft | 557 kts | 68° |
| 2026-04-22 14:02 | 33.94235 | -115.27651 | 38734 ft | 558 kts | 68° |
| 2026-04-22 14:03 | 33.95441 | -115.23205 | 38862 ft | 558 kts | 68° |
| 2026-04-22 14:03 | 33.96646 | -115.18752 | 38979 ft | 559 kts | 68° |
| 2026-04-22 14:03 | 33.99061 | -115.09828 | 39068 ft | 561 kts | 68° |
| 2026-04-22 14:04 | 34.01479 | -115.00851 | 39067 ft | 565 kts | 68° |
| 2026-04-22 14:04 | 34.03901 | -114.91817 | 39083 ft | 568 kts | 69° |
| 2026-04-22 14:05 | 34.06330 | -114.82735 | 39088 ft | 570 kts | 69° |
| 2026-04-22 14:06 | 34.09985 | -114.69020 | 39097 ft | 574 kts | 69° |
| 2026-04-22 14:06 | 34.12507 | -114.59876 | 39083 ft | 575 kts | 67° |
| 2026-04-22 14:07 | 34.15127 | -114.50752 | 39087 ft | 576 kts | 67° |
| 2026-04-22 14:07 | 34.17740 | -114.41579 | 39083 ft | 578 kts | 68° |
| 2026-04-22 14:08 | 34.20328 | -114.32374 | 39070 ft | 579 kts | 68° |
| 2026-04-22 14:08 | 34.22905 | -114.23159 | 39080 ft | 580 kts | 68° |
| 2026-04-22 14:09 | 34.25473 | -114.13969 | 39082 ft | 580 kts | 68° |
| 2026-04-22 14:09 | 34.28049 | -114.04724 | 39084 ft | 581 kts | 68° |
| 2026-04-22 14:10 | 34.30616 | -113.95450 | 39084 ft | 581 kts | 68° |
| 2026-04-22 14:10 | 34.33170 | -113.86183 | 39085 ft | 581 kts | 68° |
| 2026-04-22 14:11 | 34.35719 | -113.76908 | 39082 ft | 581 kts | 68° |
| 2026-04-22 14:11 | 34.38265 | -113.67627 | 39084 ft | 580 kts | 68° |
| 2026-04-22 14:12 | 34.40799 | -113.58366 | 39082 ft | 579 kts | 68° |
| 2026-04-22 14:12 | 34.43316 | -113.49125 | 39093 ft | 578 kts | 68° |
| 2026-04-22 14:13 | 34.45826 | -113.39872 | 39101 ft | 577 kts | 68° |
| 2026-04-22 14:13 | 34.48326 | -113.30631 | 39126 ft | 576 kts | 69° |
| 2026-04-22 14:14 | 34.50808 | -113.21427 | 39124 ft | 574 kts | 69° |
| 2026-04-22 14:14 | 34.53277 | -113.12234 | 39142 ft | 572 kts | 69° |
| 2026-04-22 14:15 | 34.55716 | -113.03117 | 39148 ft | 571 kts | 69° |
| 2026-04-22 14:15 | 34.58162 | -112.93957 | 39143 ft | 570 kts | 69° |
| 2026-04-22 14:16 | 34.60613 | -112.84738 | 39142 ft | 570 kts | 69° |
| 2026-04-22 14:16 | 34.63025 | -112.75639 | 39148 ft | 569 kts | 69° |
| 2026-04-22 14:17 | 34.65439 | -112.66504 | 39158 ft | 568 kts | 69° |
| 2026-04-22 14:17 | 34.67842 | -112.57374 | 39159 ft | 567 kts | 69° |
| 2026-04-22 14:18 | 34.70239 | -112.48244 | 39165 ft | 566 kts | 69° |
| 2026-04-22 14:18 | 34.72462 | -112.39060 | 39167 ft | 566 kts | 72° |
| 2026-04-22 14:19 | 34.74529 | -112.29822 | 39164 ft | 566 kts | 72° |
| 2026-04-22 14:19 | 34.76598 | -112.20595 | 39156 ft | 566 kts | 72° |
| 2026-04-22 14:20 | 34.79733 | -112.06822 | 39141 ft | 565 kts | 72° |
| 2026-04-22 14:20 | 34.81829 | -111.97607 | 39144 ft | 565 kts | 72° |
| 2026-04-22 14:21 | 34.84944 | -111.83814 | 39155 ft | 562 kts | 73° |
| 2026-04-22 14:22 | 34.88023 | -111.70092 | 39158 ft | 559 kts | 73° |
| 2026-04-22 14:23 | 34.91076 | -111.56407 | 39172 ft | 557 kts | 73° |
| 2026-04-22 14:23 | 34.93098 | -111.47301 | 39177 ft | 557 kts | 73° |
| 2026-04-22 14:24 | 34.95115 | -111.38189 | 39189 ft | 556 kts | 73° |
| 2026-04-22 14:24 | 34.97123 | -111.29078 | 39199 ft | 556 kts | 74° |
| 2026-04-22 14:25 | 34.99127 | -111.19958 | 39179 ft | 557 kts | 74° |
| 2026-04-22 14:25 | 35.01123 | -111.10832 | 39194 ft | 556 kts | 74° |
| 2026-04-22 14:26 | 35.03093 | -111.01785 | 39180 ft | 556 kts | 74° |
| 2026-04-22 14:26 | 35.05072 | -110.92678 | 39174 ft | 555 kts | 75° |
| 2026-04-22 14:27 | 35.07044 | -110.83563 | 39169 ft | 555 kts | 75° |
| 2026-04-22 14:27 | 35.09003 | -110.74461 | 39167 ft | 554 kts | 75° |
| 2026-04-22 14:28 | 35.10953 | -110.65368 | 39165 ft | 553 kts | 75° |
| 2026-04-22 14:28 | 35.12892 | -110.56296 | 39167 ft | 552 kts | 75° |
| 2026-04-22 14:29 | 35.14819 | -110.47240 | 39171 ft | 551 kts | 76° |
| 2026-04-22 14:29 | 35.16738 | -110.38182 | 39173 ft | 549 kts | 76° |
| 2026-04-22 14:30 | 35.18646 | -110.29149 | 39173 ft | 548 kts | 76° |
| 2026-04-22 14:30 | 35.20530 | -110.20193 | 39182 ft | 547 kts | 76° |
| 2026-04-22 14:31 | 35.22429 | -110.11127 | 39183 ft | 546 kts | 76° |
| 2026-04-22 14:31 | 35.24292 | -110.02195 | 39179 ft | 546 kts | 76° |
| 2026-04-22 14:32 | 35.26171 | -109.93149 | 39195 ft | 544 kts | 77° |
| 2026-04-22 14:32 | 35.28012 | -109.84246 | 39181 ft | 542 kts | 77° |
| 2026-04-22 14:33 | 35.29853 | -109.75327 | 39199 ft | 540 kts | 77° |
| 2026-04-22 14:33 | 35.31682 | -109.66425 | 39199 ft | 538 kts | 77° |
| 2026-04-22 14:34 | 35.33497 | -109.57545 | 39200 ft | 537 kts | 77° |
| 2026-04-22 14:34 | 35.35306 | -109.48654 | 39194 ft | 537 kts | 77° |
| 2026-04-22 14:35 | 35.37106 | -109.39770 | 39196 ft | 538 kts | 77° |
| 2026-04-22 14:35 | 35.38906 | -109.30864 | 39200 ft | 538 kts | 77° |
| 2026-04-22 14:36 | 35.40696 | -109.21974 | 39206 ft | 538 kts | 77° |
| 2026-04-22 14:36 | 35.42478 | -109.13071 | 39207 ft | 537 kts | 77° |
| 2026-04-22 14:37 | 35.44240 | -109.04237 | 39202 ft | 537 kts | 77° |
| 2026-04-22 14:37 | 35.46009 | -108.95343 | 39205 ft | 536 kts | 78° |
| 2026-04-22 14:38 | 35.47799 | -108.86469 | 39207 ft | 535 kts | 75° |
| 2026-04-22 14:38 | 35.50100 | -108.77791 | 39205 ft | 534 kts | 72° |
| 2026-04-22 14:39 | 35.52509 | -108.69167 | 39201 ft | 534 kts | 72° |
| 2026-04-22 14:39 | 35.54889 | -108.60548 | 39200 ft | 532 kts | 73° |
| 2026-04-22 14:40 | 35.58389 | -108.47615 | 39203 ft | 531 kts | 73° |
| 2026-04-22 14:40 | 35.60702 | -108.39009 | 39203 ft | 530 kts | 73° |
| 2026-04-22 14:41 | 35.63005 | -108.30418 | 39204 ft | 529 kts | 73° |
| 2026-04-22 14:41 | 35.65286 | -108.21891 | 39195 ft | 528 kts | 73° |
| 2026-04-22 14:42 | 35.67572 | -108.13318 | 39205 ft | 527 kts | 74° |
| 2026-04-22 14:42 | 35.69848 | -108.04760 | 39215 ft | 526 kts | 74° |
| 2026-04-22 14:43 | 35.72118 | -107.96192 | 39217 ft | 526 kts | 74° |
| 2026-04-22 14:43 | 35.74382 | -107.87614 | 39213 ft | 527 kts | 74° |
| 2026-04-22 14:44 | 35.76638 | -107.79042 | 39202 ft | 527 kts | 74° |
| 2026-04-22 14:44 | 35.78889 | -107.70464 | 39200 ft | 527 kts | 74° |
| 2026-04-22 14:45 | 35.81135 | -107.61872 | 39209 ft | 526 kts | 74° |
| 2026-04-22 14:45 | 35.83372 | -107.53289 | 39194 ft | 527 kts | 74° |
| 2026-04-22 14:46 | 35.85606 | -107.44694 | 39196 ft | 527 kts | 74° |
| 2026-04-22 14:46 | 35.87831 | -107.36095 | 39203 ft | 526 kts | 74° |
| 2026-04-22 14:47 | 35.90050 | -107.27499 | 39210 ft | 526 kts | 74° |
| 2026-04-22 14:47 | 35.91892 | -107.20343 | 39205 ft | 527 kts | 74° |
| 2026-04-22 14:48 | 35.94459 | -107.10332 | 39201 ft | 526 kts | 74° |
| 2026-04-22 14:48 | 35.96303 | -107.03117 | 39211 ft | 526 kts | 74° |
| 2026-04-22 14:49 | 35.98495 | -106.94505 | 39225 ft | 525 kts | 74° |
| 2026-04-22 14:49 | 36.00668 | -106.85949 | 39231 ft | 525 kts | 74° |
| 2026-04-22 14:50 | 36.02848 | -106.77343 | 39218 ft | 524 kts | 75° |
| 2026-04-22 14:50 | 36.05014 | -106.68753 | 39206 ft | 523 kts | 74° |
| 2026-04-22 14:51 | 36.07169 | -106.60183 | 39206 ft | 522 kts | 74° |
| 2026-04-22 14:51 | 36.09317 | -106.51607 | 39201 ft | 521 kts | 74° |
| 2026-04-22 14:52 | 36.11450 | -106.43065 | 39201 ft | 520 kts | 74° |
| 2026-04-22 14:52 | 36.13574 | -106.34518 | 39191 ft | 520 kts | 74° |
| 2026-04-22 14:53 | 36.15695 | -106.25969 | 39200 ft | 520 kts | 74° |
| 2026-04-22 14:53 | 36.17809 | -106.17417 | 39209 ft | 520 kts | 74° |
| 2026-04-22 14:54 | 36.19920 | -106.08849 | 39205 ft | 520 kts | 74° |
| 2026-04-22 14:54 | 36.22026 | -106.00262 | 39211 ft | 520 kts | 75° |
| 2026-04-22 14:55 | 36.24125 | -105.91684 | 39217 ft | 520 kts | 75° |
| 2026-04-22 14:55 | 36.26207 | -105.83146 | 39213 ft | 521 kts | 75° |
| 2026-04-22 14:56 | 36.28293 | -105.74555 | 39219 ft | 521 kts | 75° |
| 2026-04-22 14:56 | 36.30376 | -105.65952 | 39220 ft | 520 kts | 75° |
| 2026-04-22 14:57 | 36.32449 | -105.57358 | 39238 ft | 520 kts | 75° |
| 2026-04-22 14:57 | 36.34511 | -105.48778 | 39244 ft | 520 kts | 75° |
| 2026-04-22 14:58 | 36.36569 | -105.40189 | 39244 ft | 519 kts | 75° |
| 2026-04-22 14:58 | 36.38615 | -105.31615 | 39256 ft | 517 kts | 75° |
| 2026-04-22 14:59 | 36.40651 | -105.23049 | 39260 ft | 517 kts | 75° |
| 2026-04-22 14:59 | 36.42682 | -105.14486 | 39251 ft | 517 kts | 75° |
| 2026-04-22 15:00 | 36.44703 | -105.05927 | 39253 ft | 516 kts | 75° |
| 2026-04-22 15:00 | 36.46699 | -104.97445 | 39239 ft | 515 kts | 75° |
| 2026-04-22 15:01 | 36.48717 | -104.88908 | 39221 ft | 514 kts | 73° |
| 2026-04-22 15:01 | 36.51422 | -104.80701 | 39203 ft | 514 kts | 65° |
| 2026-04-22 15:02 | 36.54502 | -104.72687 | 39165 ft | 513 kts | 65° |
| 2026-04-22 15:02 | 36.57574 | -104.64675 | 39148 ft | 512 kts | 65° |
| 2026-04-22 15:03 | 36.60599 | -104.56657 | 39122 ft | 511 kts | 65° |
| 2026-04-22 15:03 | 36.63592 | -104.48650 | 39108 ft | 510 kts | 65° |
| 2026-04-22 15:04 | 36.66574 | -104.40644 | 39106 ft | 509 kts | 65° |
| 2026-04-22 15:04 | 36.69547 | -104.32642 | 39099 ft | 508 kts | 65° |
| 2026-04-22 15:05 | 36.72484 | -104.24718 | 39098 ft | 508 kts | 66° |
| 2026-04-22 15:05 | 36.75474 | -104.16639 | 39083 ft | 510 kts | 66° |
| 2026-04-22 15:06 | 36.78452 | -104.08574 | 39080 ft | 513 kts | 66° |
| 2026-04-22 15:06 | 36.81443 | -104.00451 | 39068 ft | 516 kts | 66° |
| 2026-04-22 15:07 | 36.84443 | -103.92279 | 39066 ft | 518 kts | 66° |
| 2026-04-22 15:07 | 36.87423 | -103.84147 | 39056 ft | 519 kts | 66° |
| 2026-04-22 15:08 | 36.90419 | -103.75937 | 39040 ft | 520 kts | 66° |
| 2026-04-22 15:08 | 36.93412 | -103.67714 | 39043 ft | 520 kts | 66° |
| 2026-04-22 15:09 | 36.96402 | -103.59484 | 39029 ft | 520 kts | 66° |
| 2026-04-22 15:09 | 36.99382 | -103.51259 | 39028 ft | 519 kts | 66° |
| 2026-04-22 15:10 | 37.02353 | -103.43033 | 39006 ft | 518 kts | 66° |
| 2026-04-22 15:10 | 37.05313 | -103.34825 | 39011 ft | 517 kts | 66° |
| 2026-04-22 15:11 | 37.08263 | -103.26613 | 38995 ft | 517 kts | 67° |
| 2026-04-22 15:11 | 37.11205 | -103.18405 | 38984 ft | 516 kts | 67° |
| 2026-04-22 15:12 | 37.14139 | -103.10199 | 38970 ft | 516 kts | 67° |
| 2026-04-22 15:12 | 37.17062 | -103.01998 | 38967 ft | 515 kts | 67° |
| 2026-04-22 15:13 | 37.19981 | -102.93786 | 38954 ft | 515 kts | 67° |
| 2026-04-22 15:13 | 37.22889 | -102.85585 | 38957 ft | 514 kts | 67° |
| 2026-04-22 15:14 | 37.25782 | -102.77401 | 38949 ft | 513 kts | 67° |
| 2026-04-22 15:14 | 37.28673 | -102.69200 | 38948 ft | 513 kts | 68° |
| 2026-04-22 15:15 | 37.31534 | -102.61065 | 38944 ft | 512 kts | 68° |
| 2026-04-22 15:15 | 37.34422 | -102.52832 | 38945 ft | 512 kts | 68° |
| 2026-04-22 15:16 | 37.37272 | -102.44679 | 38948 ft | 512 kts | 68° |
| 2026-04-22 15:16 | 37.40131 | -102.36480 | 38954 ft | 512 kts | 68° |
| 2026-04-22 15:17 | 37.42985 | -102.28275 | 38954 ft | 512 kts | 68° |
| 2026-04-22 15:17 | 37.45842 | -102.20046 | 38953 ft | 512 kts | 68° |
| 2026-04-22 15:18 | 37.48684 | -102.11827 | 38958 ft | 512 kts | 68° |
| 2026-04-22 15:18 | 37.51521 | -102.03601 | 38961 ft | 512 kts | 68° |
| 2026-04-22 15:19 | 37.54356 | -101.95358 | 38957 ft | 512 kts | 68° |
| 2026-04-22 15:19 | 37.57181 | -101.87125 | 38952 ft | 511 kts | 68° |
| 2026-04-22 15:20 | 37.59995 | -101.78904 | 38951 ft | 511 kts | 69° |
| 2026-04-22 15:20 | 37.62802 | -101.70673 | 38954 ft | 510 kts | 69° |
| 2026-04-22 15:21 | 37.65592 | -101.62475 | 38959 ft | 509 kts | 69° |
| 2026-04-22 15:21 | 37.68382 | -101.54249 | 38954 ft | 509 kts | 69° |
| 2026-04-22 15:22 | 37.71158 | -101.46039 | 38966 ft | 509 kts | 69° |
| 2026-04-22 15:22 | 37.73913 | -101.37873 | 38962 ft | 508 kts | 69° |
| 2026-04-22 15:23 | 37.76676 | -101.29660 | 38967 ft | 507 kts | 69° |
| 2026-04-22 15:23 | 37.79434 | -101.21444 | 38980 ft | 507 kts | 69° |
| 2026-04-22 15:24 | 37.82176 | -101.13246 | 38986 ft | 506 kts | 69° |
| 2026-04-22 15:24 | 37.84911 | -101.05045 | 38994 ft | 506 kts | 69° |
| 2026-04-22 15:25 | 37.87636 | -100.96849 | 38987 ft | 505 kts | 69° |
| 2026-04-22 15:25 | 37.90357 | -100.88648 | 38983 ft | 505 kts | 69° |
| 2026-04-22 15:26 | 37.93073 | -100.80438 | 38978 ft | 504 kts | 69° |
| 2026-04-22 15:26 | 37.95771 | -100.72258 | 38974 ft | 504 kts | 69° |
| 2026-04-22 15:27 | 37.98468 | -100.64057 | 38971 ft | 503 kts | 69° |
| 2026-04-22 15:27 | 38.01138 | -100.55916 | 38970 ft | 503 kts | 69° |
| 2026-04-22 15:28 | 38.03816 | -100.47723 | 38973 ft | 503 kts | 69° |
| 2026-04-22 15:28 | 38.06494 | -100.39515 | 38980 ft | 503 kts | 69° |
| 2026-04-22 15:29 | 38.09166 | -100.31296 | 38981 ft | 504 kts | 69° |
| 2026-04-22 15:30 | 38.12729 | -100.20296 | 38981 ft | 504 kts | 69° |
| 2026-04-22 15:30 | 38.15818 | -100.10734 | 38986 ft | 503 kts | 69° |
| 2026-04-22 15:31 | 38.18466 | -100.02507 | 38986 ft | 502 kts | 69° |
| 2026-04-22 15:31 | 38.21100 | -99.94301 | 38989 ft | 502 kts | 69° |
| 2026-04-22 15:32 | 38.23732 | -99.86079 | 38991 ft | 502 kts | 69° |
| 2026-04-22 15:32 | 38.26356 | -99.77859 | 38988 ft | 502 kts | 69° |
| 2026-04-22 15:33 | 38.28979 | -99.69616 | 38987 ft | 503 kts | 69° |
| 2026-04-22 15:33 | 38.31599 | -99.61354 | 38987 ft | 503 kts | 69° |
| 2026-04-22 15:34 | 38.34216 | -99.53081 | 38997 ft | 504 kts | 69° |
| 2026-04-22 15:34 | 38.36829 | -99.44794 | 38988 ft | 505 kts | 69° |
| 2026-04-22 15:35 | 38.39001 | -99.37886 | 38995 ft | 505 kts | 69° |
| 2026-04-22 15:35 | 38.42053 | -99.28158 | 38990 ft | 506 kts | 69° |
| 2026-04-22 15:36 | 38.44664 | -99.19807 | 38993 ft | 507 kts | 69° |
| 2026-04-22 15:36 | 38.47269 | -99.11445 | 38986 ft | 508 kts | 69° |
| 2026-04-22 15:37 | 38.49857 | -99.03116 | 38992 ft | 508 kts | 69° |
| 2026-04-22 15:37 | 38.52454 | -98.94732 | 38997 ft | 508 kts | 69° |
| 2026-04-22 15:38 | 38.55048 | -98.86335 | 38997 ft | 508 kts | 69° |
| 2026-04-22 15:38 | 38.58496 | -98.75134 | 38997 ft | 509 kts | 69° |
| 2026-04-22 15:39 | 38.61063 | -98.66757 | 39014 ft | 509 kts | 69° |
| 2026-04-22 15:39 | 38.63642 | -98.58322 | 39014 ft | 509 kts | 69° |
| 2026-04-22 15:40 | 38.66216 | -98.49878 | 39005 ft | 509 kts | 69° |
| 2026-04-22 15:40 | 38.68783 | -98.41429 | 39028 ft | 509 kts | 69° |
| 2026-04-22 15:41 | 38.71341 | -98.32984 | 39030 ft | 509 kts | 69° |
| 2026-04-22 15:41 | 38.73894 | -98.24529 | 39033 ft | 509 kts | 69° |
| 2026-04-22 15:42 | 38.76443 | -98.16062 | 39038 ft | 509 kts | 69° |
| 2026-04-22 15:42 | 38.78984 | -98.07594 | 39037 ft | 509 kts | 69° |
| 2026-04-22 15:43 | 38.81520 | -97.99122 | 39035 ft | 509 kts | 69° |
| 2026-04-22 15:43 | 38.84048 | -97.90636 | 39026 ft | 509 kts | 69° |
| 2026-04-22 15:44 | 38.86555 | -97.82210 | 39031 ft | 509 kts | 69° |
| 2026-04-22 15:44 | 38.89071 | -97.73718 | 39028 ft | 509 kts | 69° |
| 2026-04-22 15:45 | 38.91578 | -97.65231 | 39027 ft | 508 kts | 69° |
| 2026-04-22 15:45 | 38.94018 | -97.56710 | 39036 ft | 509 kts | 70° |
| 2026-04-22 15:46 | 38.96285 | -97.48093 | 39026 ft | 509 kts | 71° |
| 2026-04-22 15:46 | 38.98526 | -97.39462 | 39029 ft | 509 kts | 71° |
| 2026-04-22 15:47 | 39.00781 | -97.30840 | 39027 ft | 509 kts | 70° |
| 2026-04-22 15:47 | 39.03050 | -97.22204 | 39031 ft | 509 kts | 70° |
| 2026-04-22 15:48 | 39.05315 | -97.13577 | 39038 ft | 509 kts | 70° |
| 2026-04-22 15:48 | 39.07570 | -97.04937 | 39038 ft | 510 kts | 70° |
| 2026-04-22 15:49 | 39.09822 | -96.96284 | 39038 ft | 509 kts | 70° |
| 2026-04-22 15:49 | 39.12068 | -96.87632 | 39038 ft | 509 kts | 70° |
| 2026-04-22 15:50 | 39.14299 | -96.78990 | 39034 ft | 509 kts | 70° |
| 2026-04-22 15:50 | 39.16512 | -96.70382 | 39046 ft | 509 kts | 70° |
| 2026-04-22 15:51 | 39.18734 | -96.61725 | 39047 ft | 508 kts | 70° |
| 2026-04-22 15:51 | 39.20947 | -96.53066 | 39047 ft | 508 kts | 70° |
| 2026-04-22 15:52 | 39.23148 | -96.44415 | 39045 ft | 508 kts | 70° |
| 2026-04-22 15:52 | 39.25351 | -96.35742 | 39048 ft | 508 kts | 70° |
| 2026-04-22 15:53 | 39.27546 | -96.27071 | 39049 ft | 508 kts | 70° |
| 2026-04-22 15:53 | 39.29731 | -96.18402 | 39057 ft | 508 kts | 70° |
| 2026-04-22 15:54 | 39.31907 | -96.09729 | 39053 ft | 508 kts | 70° |
| 2026-04-22 15:54 | 39.34081 | -96.01043 | 39058 ft | 508 kts | 70° |
| 2026-04-22 15:55 | 39.36249 | -95.92347 | 39066 ft | 508 kts | 70° |
| 2026-04-22 15:55 | 39.38410 | -95.83653 | 39063 ft | 508 kts | 70° |
| 2026-04-22 15:56 | 39.40559 | -95.74965 | 39063 ft | 508 kts | 70° |
| 2026-04-22 15:56 | 39.42708 | -95.66258 | 39065 ft | 508 kts | 70° |
| 2026-04-22 15:57 | 39.44848 | -95.57549 | 39066 ft | 508 kts | 70° |
| 2026-04-22 15:57 | 39.46963 | -95.48912 | 39076 ft | 507 kts | 70° |
| 2026-04-22 15:58 | 39.49087 | -95.40208 | 39072 ft | 507 kts | 70° |
| 2026-04-22 15:58 | 39.51204 | -95.31501 | 39073 ft | 507 kts | 70° |
| 2026-04-22 15:59 | 39.53314 | -95.22777 | 39079 ft | 507 kts | 70° |
| 2026-04-22 15:59 | 39.55419 | -95.14056 | 39074 ft | 507 kts | 70° |
| 2026-04-22 16:00 | 39.57513 | -95.05342 | 39064 ft | 507 kts | 70° |
| 2026-04-22 16:00 | 39.59606 | -94.96609 | 39080 ft | 507 kts | 70° |
| 2026-04-22 16:01 | 39.61686 | -94.87878 | 39069 ft | 507 kts | 70° |
| 2026-04-22 16:01 | 39.63761 | -94.79152 | 39082 ft | 506 kts | 70° |
| 2026-04-22 16:02 | 39.65834 | -94.70412 | 39084 ft | 506 kts | 70° |
| 2026-04-22 16:02 | 39.67892 | -94.61685 | 39095 ft | 507 kts | 70° |
| 2026-04-22 16:03 | 39.69952 | -94.52920 | 39097 ft | 507 kts | 70° |
| 2026-04-22 16:03 | 39.72003 | -94.44163 | 39111 ft | 508 kts | 70° |
| 2026-04-22 16:04 | 39.74054 | -94.35375 | 39121 ft | 508 kts | 70° |
| 2026-04-22 16:04 | 39.76083 | -94.26648 | 39129 ft | 508 kts | 70° |
| 2026-04-22 16:05 | 39.78120 | -94.17847 | 39126 ft | 509 kts | 70° |
| 2026-04-22 16:05 | 39.80149 | -94.09041 | 39128 ft | 509 kts | 70° |
| 2026-04-22 16:06 | 39.82175 | -94.00219 | 39120 ft | 509 kts | 70° |
| 2026-04-22 16:06 | 39.84193 | -93.91393 | 39112 ft | 509 kts | 70° |
| 2026-04-22 16:07 | 39.86206 | -93.82558 | 39109 ft | 509 kts | 70° |
| 2026-04-22 16:07 | 39.88211 | -93.73723 | 39111 ft | 509 kts | 70° |
| 2026-04-22 16:08 | 39.90212 | -93.64877 | 39101 ft | 509 kts | 70° |
| 2026-04-22 16:08 | 39.92202 | -93.56042 | 39101 ft | 508 kts | 70° |
| 2026-04-22 16:09 | 39.94183 | -93.47210 | 39101 ft | 507 kts | 70° |
| 2026-04-22 16:09 | 39.96155 | -93.38385 | 39106 ft | 507 kts | 70° |
| 2026-04-22 16:10 | 39.98118 | -93.29560 | 39101 ft | 507 kts | 70° |
| 2026-04-22 16:10 | 40.00074 | -93.20735 | 39101 ft | 506 kts | 70° |
| 2026-04-22 16:11 | 40.02008 | -93.11979 | 39098 ft | 506 kts | 70° |
| 2026-04-22 16:11 | 40.03951 | -93.03144 | 39106 ft | 507 kts | 70° |
| 2026-04-22 16:12 | 40.05888 | -92.94293 | 39103 ft | 508 kts | 70° |
| 2026-04-22 16:12 | 40.07823 | -92.85422 | 39102 ft | 508 kts | 70° |
| 2026-04-22 16:13 | 40.09751 | -92.76540 | 39099 ft | 508 kts | 70° |
| 2026-04-22 16:13 | 40.11675 | -92.67660 | 39103 ft | 508 kts | 70° |
| 2026-04-22 16:14 | 40.13686 | -92.58821 | 39092 ft | 504 kts | 65° |
| 2026-04-22 16:14 | 40.16527 | -92.50533 | 39103 ft | 499 kts | 59° |
| 2026-04-22 16:15 | 40.19556 | -92.42380 | 39102 ft | 498 kts | 59° |
| 2026-04-22 16:15 | 40.22545 | -92.34207 | 39102 ft | 498 kts | 59° |
| 2026-04-22 16:16 | 40.25495 | -92.26020 | 39104 ft | 498 kts | 59° |
| 2026-04-22 16:16 | 40.28416 | -92.17873 | 39093 ft | 497 kts | 59° |
| 2026-04-22 16:17 | 40.31354 | -92.09659 | 39095 ft | 497 kts | 60° |
| 2026-04-22 16:17 | 40.34281 | -92.01461 | 39091 ft | 497 kts | 60° |
| 2026-04-22 16:18 | 40.37202 | -91.93254 | 39092 ft | 497 kts | 60° |
| 2026-04-22 16:18 | 40.40120 | -91.85034 | 39084 ft | 497 kts | 60° |
| 2026-04-22 16:19 | 40.43024 | -91.76819 | 39082 ft | 497 kts | 60° |
| 2026-04-22 16:19 | 40.45850 | -91.68529 | 39072 ft | 498 kts | 61° |
| 2026-04-22 16:20 | 40.48629 | -91.60274 | 39074 ft | 498 kts | 61° |
| 2026-04-22 16:20 | 40.51450 | -91.51913 | 39075 ft | 498 kts | 61° |
| 2026-04-22 16:21 | 40.54243 | -91.43634 | 39068 ft | 498 kts | 61° |
| 2026-04-22 16:21 | 40.57058 | -91.35311 | 39077 ft | 498 kts | 60° |
| 2026-04-22 16:22 | 40.61327 | -91.22859 | 39067 ft | 498 kts | 60° |
| 2026-04-22 16:23 | 40.65583 | -91.10371 | 39051 ft | 498 kts | 60° |
| 2026-04-22 16:23 | 40.68403 | -91.02051 | 39040 ft | 497 kts | 60° |
| 2026-04-22 16:24 | 40.72622 | -90.89564 | 39048 ft | 497 kts | 60° |
| 2026-04-22 16:25 | 40.75425 | -90.81236 | 39064 ft | 496 kts | 60° |
| 2026-04-22 16:25 | 40.79611 | -90.68748 | 39068 ft | 496 kts | 60° |
| 2026-04-22 16:26 | 40.82390 | -90.60432 | 39077 ft | 495 kts | 60° |
| 2026-04-22 16:26 | 40.85154 | -90.52160 | 39084 ft | 496 kts | 60° |
| 2026-04-22 16:27 | 40.87939 | -90.43828 | 39072 ft | 496 kts | 60° |
| 2026-04-22 16:27 | 40.90718 | -90.35483 | 39076 ft | 496 kts | 60° |
| 2026-04-22 16:28 | 40.93491 | -90.27125 | 39076 ft | 497 kts | 60° |
| 2026-04-22 16:28 | 40.96260 | -90.18755 | 39074 ft | 497 kts | 60° |
| 2026-04-22 16:29 | 40.98544 | -90.11822 | 38800 ft | 492 kts | 60° |
| 2026-04-22 16:29 | 40.99905 | -90.07688 | 38186 ft | 488 kts | 60° |
| 2026-04-22 16:29 | 41.01262 | -90.03564 | 37382 ft | 489 kts | 61° |
| 2026-04-22 16:30 | 41.02618 | -89.99437 | 36631 ft | 488 kts | 61° |
| 2026-04-22 16:30 | 41.03971 | -89.95317 | 35853 ft | 487 kts | 61° |
| 2026-04-22 16:30 | 41.05332 | -89.91195 | 34960 ft | 489 kts | 61° |
| 2026-04-22 16:30 | 41.06703 | -89.87056 | 34022 ft | 491 kts | 62° |
| 2026-04-22 16:31 | 41.08078 | -89.82901 | 33049 ft | 494 kts | 62° |
| 2026-04-22 16:31 | 41.09460 | -89.78716 | 32022 ft | 497 kts | 62° |
| 2026-04-22 16:31 | 41.10845 | -89.74508 | 31181 ft | 497 kts | 63° |
| 2026-04-22 16:31 | 41.12217 | -89.70324 | 30472 ft | 493 kts | 63° |
| 2026-04-22 16:32 | 41.13578 | -89.66171 | 29767 ft | 489 kts | 63° |
| 2026-04-22 16:32 | 41.14927 | -89.62050 | 29014 ft | 485 kts | 63° |
| 2026-04-22 16:32 | 41.16291 | -89.57990 | 28259 ft | 479 kts | 60° |
| 2026-04-22 16:32 | 41.17834 | -89.54091 | 27524 ft | 474 kts | 58° |
| 2026-04-22 16:33 | 41.19407 | -89.50274 | 26794 ft | 470 kts | 57° |
| 2026-04-22 16:33 | 41.20973 | -89.46482 | 26069 ft | 466 kts | 58° |
| 2026-04-22 16:33 | 41.22518 | -89.42709 | 25338 ft | 463 kts | 58° |
| 2026-04-22 16:33 | 41.24041 | -89.38961 | 24625 ft | 459 kts | 58° |
| 2026-04-22 16:34 | 41.25545 | -89.35243 | 23924 ft | 456 kts | 58° |
| 2026-04-22 16:34 | 41.27040 | -89.31541 | 23221 ft | 452 kts | 58° |
| 2026-04-22 16:34 | 41.28521 | -89.27870 | 22521 ft | 449 kts | 58° |
| 2026-04-22 16:34 | 41.29982 | -89.24236 | 21831 ft | 445 kts | 58° |
| 2026-04-22 16:35 | 41.31432 | -89.20620 | 21142 ft | 441 kts | 58° |
| 2026-04-22 16:35 | 41.32872 | -89.17021 | 20476 ft | 438 kts | 58° |
| 2026-04-22 16:35 | 41.34293 | -89.13465 | 19805 ft | 435 kts | 58° |
| 2026-04-22 16:35 | 41.35707 | -89.09924 | 19141 ft | 431 kts | 58° |
| 2026-04-22 16:36 | 41.37107 | -89.06412 | 18491 ft | 428 kts | 59° |
| 2026-04-22 16:36 | 41.38495 | -89.02930 | 17830 ft | 424 kts | 59° |
| 2026-04-22 16:36 | 41.39873 | -88.99472 | 17193 ft | 421 kts | 59° |
| 2026-04-22 16:36 | 41.41241 | -88.96031 | 16557 ft | 417 kts | 59° |
| 2026-04-22 16:37 | 41.42588 | -88.92637 | 15912 ft | 414 kts | 59° |
| 2026-04-22 16:37 | 41.43931 | -88.89251 | 15323 ft | 411 kts | 59° |
| 2026-04-22 16:37 | 41.45260 | -88.85900 | 14686 ft | 408 kts | 59° |
| 2026-04-22 16:37 | 41.46578 | -88.82569 | 14070 ft | 405 kts | 59° |
| 2026-04-22 16:38 | 41.47890 | -88.79248 | 13478 ft | 402 kts | 59° |
| 2026-04-22 16:38 | 41.49172 | -88.76004 | 12922 ft | 399 kts | 59° |
| 2026-04-22 16:38 | 41.50421 | -88.72832 | 12343 ft | 382 kts | 59° |
| 2026-04-22 16:38 | 41.51670 | -88.69665 | 11903 ft | 378 kts | 59° |
| 2026-04-22 16:39 | 41.52887 | -88.66580 | 11641 ft | 374 kts | 59° |
| 2026-04-22 16:39 | 41.54080 | -88.63552 | 11385 ft | 375 kts | 59° |
| 2026-04-22 16:39 | 41.55301 | -88.60455 | 11150 ft | 377 kts | 59° |
| 2026-04-22 16:39 | 41.56630 | -88.57437 | 11082 ft | 362 kts | 54° |
| 2026-04-22 16:40 | 41.58014 | -88.54816 | 10902 ft | 333 kts | 48° |
| 2026-04-22 16:40 | 41.59478 | -88.52618 | 10583 ft | 303 kts | 43° |
| 2026-04-22 16:40 | 41.62298 | -88.48709 | 9480 ft | 292 kts | 43° |
| 2026-04-22 16:41 | 41.63689 | -88.46748 | 9219 ft | 288 kts | 44° |
| 2026-04-22 16:41 | 41.65042 | -88.44809 | 9035 ft | 282 kts | 44° |
| 2026-04-22 16:41 | 41.66359 | -88.42905 | 8863 ft | 276 kts | 45° |
| 2026-04-22 16:41 | 41.67649 | -88.41021 | 8614 ft | 274 kts | 45° |
| 2026-04-22 16:42 | 41.68937 | -88.39145 | 8311 ft | 273 kts | 45° |
| 2026-04-22 16:42 | 41.70223 | -88.37270 | 8012 ft | 272 kts | 44° |